Time;durP1;ratioP1;P1;durP2;ratioP2;P2;SDS_P1;SDS_P2;PMS_P1;PMS_P2;Temp;Humidity;BMP_temperature;BMP_pressure;BME280_temperature;BME280_humidity;BME280_pressure;Samples;Min_cycle;Max_cycle;Signal;HPM_P1;HPM_P2
2021/04/28 00:01:41;;;;;;;14.80;5.80;;;6.00;99.90;;;;;;4993713;28;20483;-87
2021/04/28 00:04:08;;;;;;;7.50;4.97;;;6.10;99.90;;;;;;4993773;28;20454;-86
2021/04/28 00:06:35;;;;;;;6.90;5.60;;;;;;;;;;4993725;28;20484;-85
2021/04/28 00:09:03;;;;;;;6.80;5.50;;;5.90;99.90;;;;;;4993559;28;20457;-87
2021/04/28 00:11:29;;;;;;;10.53;5.60;;;;;;;;;;4992382;28;20956;-86
2021/04/28 00:13:56;;;;;;;8.70;5.63;;;5.90;99.90;;;;;;4993529;28;20497;-86
2021/04/28 00:16:23;;;;;;;7.13;4.90;;;;;;;;;;4993529;28;20449;-87
2021/04/28 00:18:50;;;;;;;6.27;5.33;;;;;;;;;;4993721;28;20449;-86
2021/04/28 00:21:17;;;;;;;8.13;5.60;;;;;;;;;;4993522;28;20512;-86
2021/04/28 00:23:44;;;;;;;8.27;5.53;;;5.80;99.90;;;;;;4993813;28;20458;-87
2021/04/28 00:26:12;;;;;;;6.00;5.23;;;5.80;99.90;;;;;;4989219;28;20464;-85
2021/04/28 00:28:39;;;;;;;6.67;5.40;;;5.70;99.90;;;;;;4990698;28;20516;-86
2021/04/28 00:31:07;;;;;;;10.03;6.07;;;;;;;;;;4989558;28;20948;-86
2021/04/28 00:33:34;;;;;;;8.17;5.53;;;;;;;;;;4993368;28;20500;-88
2021/04/28 00:36:00;;;;;;;5.40;4.77;;;5.60;99.90;;;;;;4987793;28;20445;-86
2021/04/28 00:38:27;;;;;;;8.13;5.17;;;;;;;;;;4993393;28;20445;-86
2021/04/28 00:40:55;;;;;;;6.17;5.57;;;;;;;;;;4992196;28;20453;-87
2021/04/28 00:43:23;;;;;;;6.93;5.40;;;5.70;99.90;;;;;;4993329;28;20921;-87
2021/04/28 00:45:50;;;;;;;7.57;5.60;;;;;;;;;;4993298;28;20449;-86
2021/04/28 00:48:18;;;;;;;6.83;5.20;;;5.60;99.90;;;;;;4993359;28;20540;-86
2021/04/28 00:50:46;;;;;;;5.83;4.90;;;5.70;99.90;;;;;;4993522;28;20876;-87
2021/04/28 00:53:15;;;;;;;7.17;5.57;;;5.50;99.90;;;;;;4993118;28;20477;-86
2021/04/28 00:55:41;;;;;;;6.40;5.30;;;;;;;;;;4992066;28;20449;-86
2021/04/28 00:58:08;;;;;;;6.30;5.10;;;;;;;;;;4993259;28;20445;-86
2021/04/28 01:00:35;;;;;;;6.30;5.20;;;;;;;;;;4993193;28;20461;-86
2021/04/28 01:03:03;;;;;;;7.53;5.50;;;;;;;;;;4993321;28;20481;-86
2021/04/28 01:05:31;;;;;;;8.00;5.20;;;5.60;99.90;;;;;;4993247;28;20449;-86
2021/04/28 01:07:58;;;;;;;6.10;5.37;;;;;;;;;;4989901;28;20440;-85
2021/04/28 01:10:27;;;;;;;5.47;4.50;;;5.50;99.90;;;;;;4986719;28;20441;-85
2021/04/28 01:12:54;;;;;;;6.10;5.23;;;5.50;99.90;;;;;;4993166;28;20549;-87
2021/04/28 01:15:23;;;;;;;9.30;5.10;;;5.50;99.90;;;;;;4993222;28;20803;-87
2021/04/28 01:17:49;;;;;;;6.90;4.77;;;;;;;;;;4993070;28;20461;-88
2021/04/28 01:20:18;;;;;;;8.47;6.40;;;5.40;99.90;;;;;;4993043;28;20445;-87
2021/04/28 01:22:46;;;;;;;6.00;4.60;;;5.40;99.90;;;;;;4993097;28;20450;-87
2021/04/28 01:25:15;;;;;;;5.90;4.80;;;5.40;99.90;;;;;;4991973;28;20851;-87
2021/04/28 01:27:46;;;;;;;8.53;5.57;;;5.40;99.90;;;;;;4994112;28;20861;-89
2021/04/28 01:30:14;;;;;;;7.33;5.40;;;5.50;99.90;;;;;;4996449;28;20461;-86
2021/04/28 01:32:45;;;;;;;6.50;5.80;;;5.30;99.90;;;;;;4996549;28;20484;-85
2021/04/28 01:35:15;;;;;;;8.27;6.00;;;5.50;99.90;;;;;;4996469;28;20445;-85
2021/04/28 01:37:44;;;;;;;7.53;5.53;;;5.80;99.90;;;;;;4996179;28;20480;-88
2021/04/28 01:40:14;;;;;;;6.17;5.50;;;5.40;99.90;;;;;;4995035;28;20457;-87
2021/04/28 01:42:41;;;;;;;12.30;6.47;;;;;;;;;;4996315;28;20507;-87
2021/04/28 01:45:08;;;;;;;7.50;5.77;;;5.30;99.90;;;;;;4996212;28;20478;-86
2021/04/28 01:47:35;;;;;;;8.10;6.10;;;5.30;99.90;;;;;;4995987;28;20971;-87
2021/04/28 01:50:01;;;;;;;7.83;6.23;;;4.90;99.90;;;;;;4996025;28;20453;-87
2021/04/28 01:52:28;;;;;;;12.20;6.57;;;5.30;99.90;;;;;;4996270;28;20449;-86
2021/04/28 01:54:54;;;;;;;7.13;5.87;;;;;;;;;;4994888;28;20501;-86
2021/04/28 01:57:26;;;;;;;6.50;5.63;;;4.80;99.90;;;;;;4995980;28;20437;-86
2021/04/28 01:59:52;;;;;;;7.67;6.13;;;;;;;;;;4995902;28;20517;-87
2021/04/28 02:02:19;;;;;;;8.00;5.50;;;;;;;;;;4995629;28;20480;-86
2021/04/28 02:04:46;;;;;;;8.57;6.00;;;5.10;99.90;;;;;;4995858;28;20441;-85
2021/04/28 02:07:13;;;;;;;7.80;5.50;;;5.20;99.90;;;;;;4995977;28;20457;-86
2021/04/28 02:09:40;;;;;;;6.73;6.03;;;5.20;99.90;;;;;;4994653;28;20863;-86
2021/04/28 02:12:06;;;;;;;6.53;5.47;;;5.30;99.90;;;;;;4995801;28;20450;-87
2021/04/28 02:14:35;;;;;;;9.17;6.17;;;5.20;99.90;;;;;;4995469;28;20520;-85
2021/04/28 02:17:02;;;;;;;8.87;6.33;;;4.70;99.90;;;;;;4995570;28;20460;-86
2021/04/28 02:19:29;;;;;;;8.10;4.93;;;4.90;99.90;;;;;;4995626;28;20510;-86
2021/04/28 02:21:56;;;;;;;6.10;5.07;;;5.00;99.90;;;;;;4995574;28;20445;-86
2021/04/28 02:24:23;;;;;;;7.03;5.90;;;5.10;99.90;;;;;;4994334;28;20553;-86
2021/04/28 02:26:55;;;;;;;7.10;5.67;;;4.80;99.90;;;;;;4991311;28;20453;-85
2021/04/28 02:29:21;;;;;;;9.37;6.23;;;;;;;;;;4995378;28;20453;-86
2021/04/28 02:31:48;;;;;;;8.57;5.87;;;4.40;99.90;;;;;;4995309;28;20526;-85
2021/04/28 02:34:15;;;;;;;9.97;5.23;;;;;;;;;;4995221;28;20489;-86
2021/04/28 02:36:44;;;;;;;7.07;6.20;;;4.90;99.90;;;;;;4989717;28;20989;-86
2021/04/28 02:39:13;;;;;;;9.80;6.37;;;4.30;99.90;;;;;;4994031;28;20975;-86
2021/04/28 02:41:41;;;;;;;5.83;5.23;;;4.80;99.90;;;;;;4994223;28;20449;-86
2021/04/28 02:44:08;;;;;;;11.27;5.83;;;;;;;;;;4995165;28;20452;-87
2021/04/28 02:46:35;;;;;;;6.97;5.73;;;;;;;;;;4995090;28;20941;-85
2021/04/28 02:49:03;;;;;;;8.03;5.47;;;4.60;99.90;;;;;;4994957;28;20450;-86
2021/04/28 02:51:31;;;;;;;7.10;5.73;;;4.70;99.90;;;;;;4994983;28;20461;-86
2021/04/28 02:53:58;;;;;;;6.33;5.47;;;4.80;99.90;;;;;;4994863;28;20505;-86
2021/04/28 02:56:25;;;;;;;6.00;5.17;;;;;;;;;;4993769;28;20453;-86
2021/04/28 02:58:52;;;;;;;7.70;5.27;;;;;;;;;;4994791;28;20488;-85
2021/04/28 03:01:19;;;;;;;7.20;6.20;;;;;;;;;;4994749;28;20469;-86
2021/04/28 03:03:45;;;;;;;6.63;5.43;;;;;;;;;;4991626;28;20532;-85
2021/04/28 03:06:16;;;;;;;11.93;7.33;;;4.40;99.90;;;;;;4994823;28;20800;-86
2021/04/28 03:08:44;;;;;;;9.37;6.20;;;;;;;;;;4994577;28;21043;-85
2021/04/28 03:11:11;;;;;;;6.50;5.73;;;4.50;99.90;;;;;;4993355;28;20464;-86
2021/04/28 03:13:37;;;;;;;14.10;5.53;;;;;;;;;;4994384;28;20496;-87
2021/04/28 03:16:04;;;;;;;9.07;5.50;;;4.80;99.90;;;;;;4994432;28;20662;-87
2021/04/28 03:18:31;;;;;;;6.13;5.30;;;;;;;;;;4994445;28;20460;-86
2021/04/28 03:20:59;;;;;;;7.10;5.80;;;4.40;99.90;;;;;;4994388;28;20446;-87
2021/04/28 03:23:26;;;;;;;10.20;5.57;;;4.40;99.90;;;;;;4994227;28;20548;-86
2021/04/28 03:25:53;;;;;;;10.70;6.20;;;4.40;99.90;;;;;;4990050;28;20471;-87
2021/04/28 03:28:20;;;;;;;7.80;6.10;;;4.30;99.90;;;;;;4994248;28;20920;-86
2021/04/28 03:30:46;;;;;;;10.07;6.00;;;;;;;;;;4994308;28;20516;-87
2021/04/28 03:33:13;;;;;;;8.63;5.93;;;4.40;99.90;;;;;;4994174;28;20535;-86
2021/04/28 03:35:39;;;;;;;6.00;5.40;;;;;;;;;;4994210;28;20461;-88
2021/04/28 03:38:05;;;;;;;8.07;6.33;;;3.90;99.90;;;;;;4993790;28;20476;-87
2021/04/28 03:40:33;;;;;;;7.50;5.47;;;4.30;99.90;;;;;;4988758;28;20458;-88
2021/04/28 03:42:59;;;;;;;7.90;5.83;;;;;;;;;;4994109;28;20464;-86
2021/04/28 03:45:26;;;;;;;11.23;6.07;;;4.20;99.90;;;;;;4994079;28;20451;-85
2021/04/28 03:47:52;;;;;;;7.17;5.30;;;4.30;99.90;;;;;;4993955;28;20457;-85
2021/04/28 03:50:18;;;;;;;12.87;6.30;;;;;;;;;;4993612;28;20465;-85
2021/04/28 03:52:45;;;;;;;7.30;5.90;;;;;;;;;;4993644;28;20453;-86
2021/04/28 03:55:13;;;;;;;8.60;6.33;;;4.00;99.90;;;;;;4988845;28;20504;-86
2021/04/28 03:57:40;;;;;;;8.43;6.27;;;4.20;99.90;;;;;;4993849;28;20454;-85
2021/04/28 04:00:09;;;;;;;8.30;6.67;;;4.20;99.90;;;;;;4993652;28;20469;-86
2021/04/28 04:02:35;;;;;;;8.30;6.50;;;4.30;99.90;;;;;;4990673;28;20441;-86
2021/04/28 04:05:02;;;;;;;8.70;5.87;;;;;;;;;;4993785;28;20476;-86
2021/04/28 04:07:29;;;;;;;8.40;6.43;;;;;;;;;;4990593;28;20445;-87
2021/04/28 04:09:55;;;;;;;10.53;6.43;;;4.00;99.90;;;;;;4992519;28;20445;-88
2021/04/28 04:12:22;;;;;;;7.17;6.23;;;;;;;;;;4993619;28;20456;-87
2021/04/28 04:14:49;;;;;;;8.57;6.30;;;4.10;99.90;;;;;;4989813;28;20583;-86
2021/04/28 04:17:16;;;;;;;10.47;6.77;;;;;;;;;;4993632;28;20445;-86
2021/04/28 04:19:42;;;;;;;6.70;5.50;;;;;;;;;;4993537;28;20460;-86
2021/04/28 04:22:08;;;;;;;10.33;6.70;;;4.20;99.90;;;;;;4993522;28;20449;-87
2021/04/28 04:24:35;;;;;;;12.23;6.93;;;4.10;99.90;;;;;;4992314;28;20486;-86
2021/04/28 04:27:01;;;;;;;6.57;5.87;;;;;;;;;;4993530;28;20452;-85
2021/04/28 04:29:28;;;;;;;8.20;7.10;;;;;;;;;;4993387;28;20953;-86
2021/04/28 04:31:55;;;;;;;8.80;6.70;;;4.10;99.90;;;;;;4993293;28;20453;-86
2021/04/28 04:34:22;;;;;;;8.20;6.60;;;;;;;;;;4992497;28;20540;-85
2021/04/28 04:36:48;;;;;;;8.57;6.07;;;;;;;;;;4992550;28;20484;-85
2021/04/28 04:39:15;;;;;;;9.07;6.90;;;;;;;;;;4992556;28;20452;-88
2021/04/28 04:41:42;;;;;;;7.73;6.70;;;;;;;;;;4992017;28;20449;-84
2021/04/28 04:44:11;;;;;;;12.53;7.37;;;;;;;;;;4989678;28;20437;-84
2021/04/28 04:46:38;;;;;;;16.10;7.30;;;;;;;;;;4992773;28;20449;-85
2021/04/28 04:49:08;;;;;;;8.10;6.70;;;4.40;99.90;;;;;;4989906;28;20454;-83
2021/04/28 04:51:35;;;;;;;9.97;5.53;;;4.40;99.90;;;;;;4989695;28;20504;-85
2021/04/28 04:54:07;;;;;;;9.73;6.50;;;4.40;99.90;;;;;;4992338;28;21007;-84
2021/04/28 04:56:34;;;;;;;10.13;6.80;;;;;;;;;;4992052;28;20504;-83
2021/04/28 04:59:01;;;;;;;10.00;6.77;;;4.00;99.90;;;;;;4990336;28;20450;-85
2021/04/28 05:01:33;;;;;;;10.93;7.10;;;4.60;99.90;;;;;;4989409;28;20531;-84
2021/04/28 05:04:03;;;;;;;8.97;7.03;;;;;;;;;;4993191;28;20464;-87
2021/04/28 05:06:33;;;;;;;8.43;6.50;;;4.90;99.90;;;;;;4993163;28;20441;-86
2021/04/28 05:08:59;;;;;;;10.90;6.70;;;;;;;;;;4991178;28;20450;-87
2021/04/28 05:11:26;;;;;;;10.13;6.50;;;5.00;99.90;;;;;;4995951;28;20504;-87
2021/04/28 05:13:52;;;;;;;8.63;6.80;;;5.20;99.90;;;;;;4997046;28;20505;-87
2021/04/28 05:16:19;;;;;;;10.43;6.33;;;;;;;;;;4996603;28;20457;-86
2021/04/28 05:18:45;;;;;;;15.93;8.07;;;5.70;99.90;;;;;;4996652;28;20460;-87
2021/04/28 05:21:12;;;;;;;17.47;8.30;;;;;;;;;;4996641;28;20446;-87
2021/04/28 05:23:39;;;;;;;12.20;7.80;;;5.50;99.90;;;;;;4996574;28;20810;-85
2021/04/28 05:26:05;;;;;;;11.80;7.57;;;;;;;;;;4995438;28;20472;-85
2021/04/28 05:28:32;;;;;;;11.43;7.43;;;;;;;;;;4996440;28;20461;-86
2021/04/28 05:30:59;;;;;;;11.73;7.60;;;;;;;;;;4996540;28;20441;-86
2021/04/28 05:33:25;;;;;;;16.50;8.00;;;;;;;;;;4991676;28;20535;-86
2021/04/28 05:35:52;;;;;;;11.97;7.63;;;7.90;99.90;;;;;;4996165;28;20453;-85
2021/04/28 05:38:18;;;;;;;11.67;7.83;;;8.00;99.90;;;;;;4996100;28;20453;-87
2021/04/28 05:40:53;;;;;;;10.50;7.77;;;9.00;99.90;;;;;;4995477;28;20856;-87
2021/04/28 05:43:19;;;;;;;11.77;8.30;;;9.60;98.60;;;;;;4991632;28;20453;-89
2021/04/28 05:45:46;;;;;;;13.07;8.30;;;9.30;99.90;;;;;;4996043;28;20437;-87
2021/04/28 05:48:13;;;;;;;17.40;9.30;;;10.00;99.90;;;;;;4993553;28;20437;-88
2021/04/28 05:50:40;;;;;;;10.33;7.20;;;10.30;99.90;;;;;;4996163;28;20932;-86
2021/04/28 05:53:07;;;;;;;10.83;7.27;;;10.40;99.90;;;;;;4998017;28;20453;-86
2021/04/28 05:55:33;;;;;;;9.23;7.10;;;11.20;99.90;;;;;;4997242;28;20453;-86
2021/04/28 05:58:00;;;;;;;10.97;8.23;;;11.60;97.10;;;;;;4997409;28;20457;-86
2021/04/28 06:00:27;;;;;;;10.63;7.60;;;11.50;92.40;;;;;;4998690;28;20492;-86
2021/04/28 06:02:54;;;;;;;13.63;8.90;;;;;;;;;;4998093;28;20500;-88
2021/04/28 06:05:21;;;;;;;10.27;8.47;;;;;;;;;;4997950;28;20453;-85
2021/04/28 06:07:47;;;;;;;15.17;8.47;;;12.80;99.90;;;;;;4998263;28;20449;-87
2021/04/28 06:10:15;;;;;;;10.20;8.77;;;12.70;99.50;;;;;;4997437;28;20460;-87
2021/04/28 06:12:42;;;;;;;10.17;8.47;;;12.80;99.90;;;;;;4999078;28;20485;-86
2021/04/28 06:15:13;;;;;;;9.97;8.10;;;12.70;90.30;;;;;;4997648;28;20496;-85
2021/04/28 06:17:40;;;;;;;13.23;9.50;;;13.00;90.10;;;;;;4996654;28;20453;-86
2021/04/28 06:20:09;;;;;;;13.43;9.93;;;13.30;88.40;;;;;;4996484;28;20450;-86
2021/04/28 06:22:35;;;;;;;13.63;9.70;;;13.60;86.90;;;;;;4996767;28;20449;-85
2021/04/28 06:25:02;;;;;;;13.77;9.63;;;14.00;97.70;;;;;;4995044;28;20453;-86
2021/04/28 06:27:28;;;;;;;12.40;9.03;;;13.80;87.20;;;;;;4996263;28;20452;-87
2021/04/28 06:29:54;;;;;;;12.57;10.10;;;14.10;86.00;;;;;;4945353;28;20465;-86
2021/04/28 06:32:22;;;;;;;13.97;10.00;;;14.00;85.50;;;;;;4995513;28;20445;-85
2021/04/28 06:34:48;;;;;;;10.77;8.90;;;14.20;86.10;;;;;;4995647;28;20492;-86
2021/04/28 06:37:14;;;;;;;11.00;9.90;;;14.20;84.90;;;;;;4995319;28;20485;-86
2021/04/28 06:39:41;;;;;;;15.10;10.33;;;14.50;96.40;;;;;;4994205;28;20995;-85
2021/04/28 06:42:07;;;;;;;13.10;9.17;;;14.60;96.80;;;;;;4995178;28;20464;-85
2021/04/28 06:44:34;;;;;;;11.10;9.60;;;14.60;81.40;;;;;;4995614;28;20477;-85
2021/04/28 06:47:00;;;;;;;13.33;9.57;;;15.00;95.80;;;;;;4996472;28;20577;-86
2021/04/28 06:49:27;;;;;;;11.80;9.90;;;15.50;76.50;;;;;;4997052;28;20948;-86
2021/04/28 06:51:54;;;;;;;11.20;9.90;;;14.90;94.60;;;;;;4996108;28;20453;-85
2021/04/28 06:54:20;;;;;;;10.20;7.93;;;;;;;;;;4995034;28;20497;-86
2021/04/28 06:56:47;;;;;;;15.73;10.43;;;;;;;;;;4995558;28;20454;-85
2021/04/28 06:59:15;;;;;;;15.57;8.80;;;15.10;77.00;;;;;;4995785;28;20473;-84
2021/04/28 07:01:42;;;;;;;12.27;9.50;;;;;;;;;;4993199;28;20453;-86
2021/04/28 07:04:09;;;;;;;11.90;9.50;;;15.60;74.80;;;;;;4995676;28;20956;-85
2021/04/28 07:06:37;;;;;;;11.70;9.00;;;15.60;74.90;;;;;;4995583;28;20516;-87
2021/04/28 07:09:04;;;;;;;14.97;9.87;;;16.20;72.60;;;;;;4995552;28;20476;-86
2021/04/28 07:11:31;;;;;;;11.90;9.13;;;16.20;73.20;;;;;;4994900;28;20461;-87
2021/04/28 07:13:57;;;;;;;9.30;8.40;;;16.70;72.20;;;;;;4997110;28;20493;-89
2021/04/28 07:16:24;;;;;;;14.33;9.67;;;16.80;71.30;;;;;;4997352;28;20449;-87
2021/04/28 07:18:50;;;;;;;10.10;8.43;;;17.40;70.70;;;;;;4992445;28;20452;-87
2021/04/28 07:21:17;;;;;;;11.33;9.87;;;17.30;82.30;;;;;;4998009;28;20457;-87
2021/04/28 07:23:44;;;;;;;13.93;9.63;;;17.50;93.50;;;;;;4991871;28;20455;-89
2021/04/28 07:26:12;;;;;;;14.80;10.23;;;16.60;74.90;;;;;;4994933;28;20849;-90
2021/04/28 07:28:38;;;;;;;11.73;9.30;;;16.60;91.70;;;;;;4991843;28;20453;-91
2021/04/28 07:31:04;;;;;;;12.67;9.10;;;16.50;71.50;;;;;;4996930;28;20492;-89
2021/04/28 07:33:31;;;;;;;11.53;10.33;;;15.20;94.60;;;;;;4995278;28;20822;-88
2021/04/28 07:35:57;;;;;;;13.50;9.80;;;;;;;;;;4990143;28;20461;-88
2021/04/28 07:38:24;;;;;;;15.23;10.77;;;16.70;74.20;;;;;;4995454;28;20875;-88
2021/04/28 07:40:51;;;;;;;12.67;11.47;;;18.50;91.40;;;;;;4995121;28;20453;-90
2021/04/28 07:43:17;;;;;;;13.87;11.13;;;18.30;68.80;;;;;;4993778;28;20453;-88
2021/04/28 07:45:44;;;;;;;13.10;10.13;;;;;;;;;;4992692;28;20476;-88
2021/04/28 07:48:12;;;;;;;17.20;11.20;;;18.30;81.40;;;;;;4989359;28;20823;-89
2021/04/28 07:50:39;;;;;;;13.27;11.10;;;18.20;70.80;;;;;;4972302;28;20460;-89
2021/04/28 07:53:06;;;;;;;11.43;9.60;;;18.20;71.40;;;;;;4975611;28;20462;-88
2021/04/28 07:55:35;;;;;;;16.33;10.13;;;19.10;67.50;;;;;;4980468;28;20496;-90
2021/04/28 07:58:02;;;;;;;12.30;11.00;;;18.50;67.90;;;;;;4992906;28;20611;-90
2021/04/28 08:00:28;;;;;;;14.70;11.27;;;18.90;90.00;;;;;;4991065;28;20470;-89
2021/04/28 08:02:55;;;;;;;12.50;11.07;;;;;;;;;;4992842;28;20465;-88
2021/04/28 08:05:21;;;;;;;13.17;10.10;;;19.80;84.00;;;;;;4997072;28;20448;-89
2021/04/28 08:07:48;;;;;;;12.53;10.47;;;19.80;89.50;;;;;;4979950;28;20449;-90
2021/04/28 08:10:15;;;;;;;12.70;11.10;;;19.90;81.90;;;;;;4976422;28;20454;-89
2021/04/28 08:12:41;;;;;;;12.17;10.93;;;;;;;;;;4976424;28;20458;-88
2021/04/28 08:15:10;;;;;;;17.13;10.80;;;19.50;84.60;;;;;;4975512;28;20494;-89
2021/04/28 08:17:38;;;;;;;17.03;12.07;;;19.30;80.00;;;;;;4976424;28;20454;-90
2021/04/28 08:20:06;;;;;;;16.10;12.03;;;18.40;83.10;;;;;;4972592;28;20825;-89
2021/04/28 08:22:33;;;;;;;13.13;11.13;;;;;;;;;;4976893;28;20504;-90
2021/04/28 08:25:00;;;;;;;15.03;11.00;;;;;;;;;;4977879;28;20466;-91
2021/04/28 08:27:27;;;;;;;13.90;10.50;;;;;;;;;;4975111;28;20442;-90
2021/04/28 08:29:54;;;;;;;13.70;10.83;;;21.40;79.70;;;;;;4976611;28;20977;-88
2021/04/28 08:32:21;;;;;;;15.00;11.47;;;21.90;78.70;;;;;;4975209;28;20458;-90
2021/04/28 08:34:48;;;;;;;14.73;11.10;;;22.30;57.20;;;;;;4976918;28;20498;-94
2021/04/28 08:37:15;;;;;;;13.83;11.90;;;22.30;79.40;;;;;;4980693;28;20549;-88
2021/04/28 08:39:41;;;;;;;11.17;9.67;;;22.40;87.10;;;;;;4992897;28;20461;-90
2021/04/28 08:42:09;;;;;;;15.50;10.93;;;22.60;74.40;;;;;;5000167;28;20813;-88
2021/04/28 08:44:36;;;;;;;11.20;10.03;;;22.20;75.40;;;;;;4996278;28;20457;-90
2021/04/28 08:47:03;;;;;;;12.20;10.63;;;22.70;76.90;;;;;;4999808;28;20453;-89
2021/04/28 08:49:30;;;;;;;10.97;9.87;;;22.60;81.20;;;;;;4999463;28;20511;-88
2021/04/28 08:51:56;;;;;;;13.10;10.73;;;22.00;81.90;;;;;;5002229;28;20453;-89
2021/04/28 08:54:24;;;;;;;13.70;9.70;;;;;;;;;;4998971;28;20497;-89
2021/04/28 08:56:51;;;;;;;17.70;11.33;;;21.60;82.50;;;;;;5000151;28;20539;-90
2021/04/28 08:59:18;;;;;;;14.63;10.70;;;21.30;71.00;;;;;;4995954;28;20503;-87
2021/04/28 09:01:47;;;;;;;15.90;10.80;;;;;;;;;;4999376;28;20441;-88
2021/04/28 09:04:15;;;;;;;14.97;9.60;;;22.20;81.30;;;;;;4999612;28;20473;-88
2021/04/28 09:06:42;;;;;;;15.07;11.30;;;22.40;55.70;;;;;;5000875;28;20445;-88
2021/04/28 09:09:10;;;;;;;11.33;10.13;;;22.70;66.50;;;;;;4997843;28;20449;-86
2021/04/28 09:11:39;;;;;;;16.80;10.83;;;22.80;53.20;;;;;;4998174;28;20457;-87
2021/04/28 09:14:11;;;;;;;10.70;9.80;;;23.30;72.50;;;;;;4996342;28;20483;-88
2021/04/28 09:16:42;;;;;;;15.10;11.13;;;22.40;70.80;;;;;;4994162;28;20936;-88
2021/04/28 09:19:20;;;;;;;15.20;11.47;;;23.00;53.40;;;;;;4980576;28;20458;-87
2021/04/28 09:21:58;;;;;;;10.67;9.63;;;23.00;78.30;;;;;;4994212;28;20473;-88
2021/04/28 09:24:26;;;;;;;11.93;10.77;;;23.10;63.50;;;;;;4992086;28;20456;-87
2021/04/28 09:26:55;;;;;;;13.13;10.53;;;22.50;70.60;;;;;;4997089;28;20507;-88
2021/04/28 09:29:25;;;;;;;15.30;10.67;;;23.20;75.50;;;;;;4997061;28;20483;-89
2021/04/28 09:32:02;;;;;;;17.83;12.03;;;23.60;77.20;;;;;;4999135;28;20479;-89
2021/04/28 09:34:31;;;;;;;15.33;10.03;;;22.60;75.10;;;;;;4998179;28;20550;-90
2021/04/28 09:37:04;;;;;;;15.90;10.70;;;23.20;66.00;;;;;;4997824;28;20488;-89
2021/04/28 09:39:30;;;;;;;13.27;11.03;;;23.10;67.80;;;;;;4993213;28;20549;-90
2021/04/28 09:41:57;;;;;;;10.90;9.27;;;23.20;52.70;;;;;;4999322;28;20449;-91
2021/04/28 09:44:32;;;;;;;10.90;9.80;;;23.40;79.30;;;;;;4996310;28;20445;-89
2021/04/28 09:47:05;;;;;;;12.07;9.00;;;23.20;83.30;;;;;;4992384;28;20807;-87
2021/04/28 09:49:53;;;;;;;9.90;8.90;;;23.00;76.30;;;;;;4997555;28;20441;-89
2021/04/28 09:52:36;;;;;;;11.43;9.20;;;23.50;84.00;;;;;;4998104;28;20453;-89
2021/04/28 09:55:05;;;;;;;13.07;9.73;;;23.90;56.60;;;;;;4991328;28;21008;-88
2021/04/28 09:57:36;;;;;;;13.07;9.90;;;24.70;62.20;;;;;;4992656;28;20459;-88
2021/04/28 10:00:13;;;;;;;13.83;8.80;;;23.90;50.60;;;;;;4975829;28;20457;-89
2021/04/28 10:02:41;;;;;;;11.30;10.20;;;23.30;75.40;;;;;;4977729;28;20450;-88
2021/04/28 10:05:22;;;;;;;16.47;9.83;;;24.60;75.50;;;;;;4976267;28;20450;-88
2021/04/28 10:07:50;;;;;;;13.53;8.77;;;24.60;77.10;;;;;;4973453;28;20457;-88
2021/04/28 10:10:19;;;;;;;12.80;10.23;;;25.10;74.30;;;;;;4972670;28;20458;-87
2021/04/28 10:12:45;;;;;;;12.10;9.60;;;24.90;50.00;;;;;;4976692;28;20450;-88
2021/04/28 10:15:12;;;;;;;11.13;9.67;;;24.60;61.40;;;;;;4978144;28;20493;-89
2021/04/28 10:17:39;;;;;;;12.80;8.90;;;24.60;49.30;;;;;;4977213;28;20945;-89
2021/04/28 10:20:08;;;;;;;10.00;8.93;;;23.70;47.70;;;;;;4976248;28;20453;-88
2021/04/28 10:22:35;;;;;;;10.87;9.20;;;24.70;47.60;;;;;;4977338;28;20509;-90
2021/04/28 10:25:07;;;;;;;13.33;11.20;;;24.20;68.00;;;;;;4976155;28;20458;-90
2021/04/28 10:27:36;;;;;;;10.73;8.77;;;;;;;;;;4992395;28;20459;-90
2021/04/28 10:30:02;;;;;;;10.37;8.80;;;25.30;47.40;;;;;;4997263;28;20527;-90
2021/04/28 10:32:29;;;;;;;9.27;7.80;;;;;;;;;;4996213;28;20807;-90
2021/04/28 10:34:59;;;;;;;8.07;7.27;;;23.60;67.40;;;;;;4993373;28;20489;-90
2021/04/28 10:37:28;;;;;;;7.73;7.00;;;24.40;45.60;;;;;;4995780;28;20493;-91
2021/04/28 10:39:54;;;;;;;8.20;7.40;;;;;;;;;;4995964;28;20457;-90
2021/04/28 10:42:29;;;;;;;7.43;6.70;;;24.50;49.90;;;;;;4999907;28;20457;-90
2021/04/28 10:44:55;;;;;;;9.20;6.73;;;23.90;64.50;;;;;;4996684;28;20543;-91
2021/04/28 10:47:28;;;;;;;8.40;6.70;;;23.60;65.60;;;;;;4999301;28;20453;-90
2021/04/28 10:50:22;;;;;;;8.17;5.50;;;23.30;55.60;;;;;;4999103;28;20449;-91
2021/04/28 10:52:59;;;;;;;6.27;5.17;;;23.90;58.20;;;;;;4993317;28;20477;-89
2021/04/28 10:55:56;;;;;;;5.40;4.90;;;24.00;66.50;;;;;;4996844;28;20489;-91
2021/04/28 10:58:41;;;;;;;5.23;3.70;;;23.60;61.10;;;;;;4984395;28;20970;-90
2021/04/28 11:01:18;;;;;;;10.43;4.37;;;23.80;64.80;;;;;;4977902;28;20458;-90
2021/04/28 11:03:48;;;;;;;5.23;4.73;;;23.00;59.30;;;;;;4972765;28;20462;-92
2021/04/28 11:06:48;;;;;;;6.00;5.03;;;24.30;61.20;;;;;;4973612;28;20442;-90
2021/04/28 11:09:18;;;;;;;5.30;4.80;;;24.40;41.50;;;;;;4917803;29;20822;-91
2021/04/28 11:11:51;;;;;;;8.27;3.73;;;24.10;42.00;;;;;;4967596;28;20508;-90
2021/04/28 11:14:40;;;;;;;3.57;3.27;;;24.20;40.40;;;;;;4976997;28;20493;-89
2021/04/28 11:17:26;;;;;;;4.50;3.90;;;22.80;61.30;;;;;;4979069;28;20458;-93
2021/04/28 11:19:54;;;;;;;6.27;4.03;;;23.10;58.80;;;;;;4977358;28;20973;-88
2021/04/28 11:22:29;;;;;;;5.17;4.67;;;22.50;61.20;;;;;;5154280;27;20522;-88
2021/04/28 11:25:08;;;;;;;4.20;3.73;;;22.10;41.00;;;;;;5153120;27;20951;-87
2021/04/28 11:27:51;;;;;;;5.00;4.20;;;22.50;54.20;;;;;;5156019;27;20548;-93
2021/04/28 11:30:29;;;;;;;4.83;4.00;;;22.70;61.80;;;;;;5154130;27;20437;-90
2021/04/28 11:33:34;;;;;;;4.17;3.77;;;23.20;62.00;;;;;;5153991;27;20541;-90
2021/04/28 11:36:12;;;;;;;4.20;3.73;;;22.70;42.70;;;;;;5150070;27;20940;-85
2021/04/28 11:38:43;;;;;;;6.90;4.07;;;22.70;40.90;;;;;;5157582;27;20443;-88
2021/04/28 11:41:11;;;;;;;4.73;3.67;;;22.70;53.30;;;;;;5154966;27;20494;-88
2021/04/28 11:43:41;;;;;;;5.03;4.00;;;22.70;41.50;;;;;;5158448;27;20439;-95
2021/04/28 11:46:10;;;;;;;3.70;3.30;;;22.20;41.50;;;;;;5157831;27;20828;-93
2021/04/28 11:48:43;;;;;;;4.80;4.10;;;21.60;42.10;;;;;;5156362;27;20443;-91
2021/04/28 11:51:12;;;;;;;4.77;4.33;;;21.70;42.40;;;;;;5154601;27;20434;-92
2021/04/28 11:53:55;;;;;;;4.63;4.17;;;22.50;60.70;;;;;;5152532;27;20446;-87
2021/04/28 11:56:32;;;;;;;5.80;4.43;;;23.00;61.30;;;;;;5151820;27;20431;-88
2021/04/28 11:59:00;;;;;;;3.70;3.27;;;;;;;;;;5156231;27;20453;-93
2021/04/28 12:01:27;;;;;;;4.87;3.93;;;23.00;62.90;;;;;;5151223;27;20494;-87
2021/04/28 12:04:01;;;;;;;4.80;4.40;;;22.90;40.90;;;;;;5151497;27;20473;-89
2021/04/28 12:06:39;;;;;;;4.63;3.70;;;23.70;61.60;;;;;;5151314;27;20444;-86
2021/04/28 12:09:11;;;;;;;3.83;3.03;;;23.00;61.10;;;;;;5151154;27;20446;-84
2021/04/28 12:11:37;;;;;;;3.93;3.50;;;22.00;59.30;;;;;;5149860;27;20440;-87
2021/04/28 12:14:04;;;;;;;4.07;2.97;;;22.40;41.00;;;;;;5151016;27;20442;-85
2021/04/28 12:16:31;;;;;;;6.30;4.00;;;22.50;64.10;;;;;;5150957;27;20900;-85
2021/04/28 12:19:07;;;;;;;6.23;4.07;;;22.90;55.60;;;;;;5150897;27;20443;-85
2021/04/28 12:21:34;;;;;;;5.97;4.63;;;;;;;;;;5150635;27;20494;-86
2021/04/28 12:24:00;;;;;;;5.10;3.60;;;24.10;63.60;;;;;;5150885;27;20454;-85
2021/04/28 12:26:28;;;;;;;5.13;3.97;;;23.60;42.50;;;;;;5149767;27;20456;-86
2021/04/28 12:28:54;;;;;;;7.53;4.90;;;23.70;44.30;;;;;;5150618;27;20449;-86
2021/04/28 12:31:48;;;;;;;12.23;9.90;;;25.00;56.80;;;;;;5150170;27;20503;-86
2021/04/28 12:34:18;;;;;;;9.47;8.23;;;24.70;45.80;;;;;;5136529;27;20458;-87
2021/04/28 12:36:45;;;;;;;11.73;9.10;;;23.30;45.00;;;;;;5136775;27;20451;-86
2021/04/28 12:39:11;;;;;;;10.90;8.70;;;22.80;46.40;;;;;;5136729;27;20442;-86
2021/04/28 12:41:39;;;;;;;8.53;7.73;;;22.80;44.90;;;;;;5135765;27;20482;-86
2021/04/28 12:44:05;;;;;;;17.17;8.30;;;23.00;45.40;;;;;;5132490;27;20443;-86
2021/04/28 12:46:32;;;;;;;9.90;8.10;;;23.70;45.70;;;;;;5133942;27;20434;-86
2021/04/28 12:49:01;;;;;;;14.53;8.80;;;24.50;46.10;;;;;;5137143;27;20443;-85
2021/04/28 12:51:29;;;;;;;17.33;9.37;;;24.30;45.60;;;;;;5136444;27;20447;-87
2021/04/28 12:53:55;;;;;;;12.93;9.47;;;23.10;61.10;;;;;;5133296;27;20454;-85
2021/04/28 12:56:22;;;;;;;9.60;8.03;;;22.20;65.80;;;;;;5117206;27;20954;-85
2021/04/28 12:58:53;;;;;;;9.30;7.47;;;22.40;46.20;;;;;;5115770;28;20440;-85
2021/04/28 13:01:21;;;;;;;7.80;7.00;;;22.60;47.60;;;;;;5129911;27;20838;-86
2021/04/28 13:03:47;;;;;;;8.53;5.93;;;;;;;;;;5123755;27;20463;-85
2021/04/28 13:06:19;;;;;;;13.33;6.30;;;22.30;80.80;;;;;;5136569;27;20443;-85
2021/04/28 13:08:46;;;;;;;10.20;7.20;;;22.00;58.30;;;;;;5124533;27;20843;-85
2021/04/28 13:11:15;;;;;;;8.70;6.30;;;21.00;58.70;;;;;;5114236;28;20808;-85
2021/04/28 13:13:44;;;;;;;9.70;6.87;;;20.90;67.80;;;;;;5115215;28;20946;-87
2021/04/28 13:16:33;;;;;;;9.43;6.80;;;21.60;68.70;;;;;;5116130;28;20460;-85